sensor_id;sensor_type;location;lat;lon;timestamp;temperature;humidity
1700;DHT22;847;48.058;7.810;2023-11-22T00:02:16;10.30;99.00
1700;DHT22;847;48.058;7.810;2023-11-22T00:04:42;10.20;99.00
1700;DHT22;847;48.058;7.810;2023-11-22T00:07:09;10.20;99.00
1700;DHT22;847;48.058;7.810;2023-11-22T00:09:38;10.20;99.00
1700;DHT22;847;48.058;7.810;2023-11-22T00:12:05;10.30;99.00
1700;DHT22;847;48.058;7.810;2023-11-22T00:14:33;10.30;99.00
1700;DHT22;847;48.058;7.810;2023-11-22T00:17:00;10.20;99.00
1700;DHT22;847;48.058;7.810;2023-11-22T00:19:27;10.00;99.00
1700;DHT22;847;48.058;7.810;2023-11-22T00:21:54;10.10;99.00
1700;DHT22;847;48.058;7.810;2023-11-22T00:24:21;10.10;99.00
1700;DHT22;847;48.058;7.810;2023-11-22T00:26:49;10.10;99.00
1700;DHT22;847;48.058;7.810;2023-11-22T00:29:16;10.10;99.00
1700;DHT22;847;48.058;7.810;2023-11-22T00:31:43;10.10;99.00
1700;DHT22;847;48.058;7.810;2023-11-22T00:34:10;9.90;99.00
1700;DHT22;847;48.058;7.810;2023-11-22T00:36:37;9.70;99.00
1700;DHT22;847;48.058;7.810;2023-11-22T00:39:03;9.60;99.00
1700;DHT22;847;48.058;7.810;2023-11-22T00:41:30;9.70;99.00
1700;DHT22;847;48.058;7.810;2023-11-22T00:43:59;9.70;99.00
1700;DHT22;847;48.058;7.810;2023-11-22T00:46:26;9.70;99.00
1700;DHT22;847;48.058;7.810;2023-11-22T00:48:52;9.60;99.00
1700;DHT22;847;48.058;7.810;2023-11-22T00:51:19;9.50;99.00
1700;DHT22;847;48.058;7.810;2023-11-22T00:53:46;9.50;99.00
1700;DHT22;847;48.058;7.810;2023-11-22T00:56:13;9.60;99.00
1700;DHT22;847;48.058;7.810;2023-11-22T00:58:39;9.60;99.00
1700;DHT22;847;48.058;7.810;2023-11-22T01:01:08;9.60;99.00
1700;DHT22;847;48.058;7.810;2023-11-22T01:03:34;9.60;99.00
1700;DHT22;847;48.058;7.810;2023-11-22T01:06:01;9.50;99.00
1700;DHT22;847;48.058;7.810;2023-11-22T01:08:28;9.60;99.00
1700;DHT22;847;48.058;7.810;2023-11-22T01:10:56;9.50;99.00
1700;DHT22;847;48.058;7.810;2023-11-22T01:13:23;9.50;99.00
1700;DHT22;847;48.058;7.810;2023-11-22T01:15:50;9.60;99.00
1700;DHT22;847;48.058;7.810;2023-11-22T01:18:18;9.60;99.00
1700;DHT22;847;48.058;7.810;2023-11-22T01:20:45;9.60;99.00
1700;DHT22;847;48.058;7.810;2023-11-22T01:23:12;9.60;99.00
1700;DHT22;847;48.058;7.810;2023-11-22T01:25:40;9.60;99.00
1700;DHT22;847;48.058;7.810;2023-11-22T01:28:06;9.60;99.00
1700;DHT22;847;48.058;7.810;2023-11-22T01:30:34;9.40;99.00
1700;DHT22;847;48.058;7.810;2023-11-22T01:33:01;9.50;99.00
1700;DHT22;847;48.058;7.810;2023-11-22T01:35:29;9.50;99.00
1700;DHT22;847;48.058;7.810;2023-11-22T01:37:55;9.50;99.00
1700;DHT22;847;48.058;7.810;2023-11-22T01:40:23;9.30;99.00
1700;DHT22;847;48.058;7.810;2023-11-22T01:42:51;9.30;99.00
1700;DHT22;847;48.058;7.810;2023-11-22T01:45:20;9.40;99.00
1700;DHT22;847;48.058;7.810;2023-11-22T01:47:46;9.50;99.00
1700;DHT22;847;48.058;7.810;2023-11-22T01:50:13;9.50;99.00
1700;DHT22;847;48.058;7.810;2023-11-22T01:52:43;9.60;99.00
1700;DHT22;847;48.058;7.810;2023-11-22T01:55:10;9.50;99.00
1700;DHT22;847;48.058;7.810;2023-11-22T01:57:38;9.50;99.00
1700;DHT22;847;48.058;7.810;2023-11-22T02:00:08;9.60;99.00
1700;DHT22;847;48.058;7.810;2023-11-22T02:02:39;9.70;99.00
1700;DHT22;847;48.058;7.810;2023-11-22T02:05:08;9.70;99.00
1700;DHT22;847;48.058;7.810;2023-11-22T02:07:37;9.70;99.00
1700;DHT22;847;48.058;7.810;2023-11-22T02:10:08;9.70;99.00
1700;DHT22;847;48.058;7.810;2023-11-22T02:12:35;9.70;99.00
1700;DHT22;847;48.058;7.810;2023-11-22T02:15:02;9.60;99.00
1700;DHT22;847;48.058;7.810;2023-11-22T02:17:29;9.60;99.00
1700;DHT22;847;48.058;7.810;2023-11-22T02:19:59;9.50;99.00
1700;DHT22;847;48.058;7.810;2023-11-22T02:22:26;9.40;99.00
1700;DHT22;847;48.058;7.810;2023-11-22T02:24:54;9.20;99.00
1700;DHT22;847;48.058;7.810;2023-11-22T02:27:21;9.00;99.00
1700;DHT22;847;48.058;7.810;2023-11-22T02:29:48;8.90;99.00
1700;DHT22;847;48.058;7.810;2023-11-22T02:32:15;8.70;99.00
1700;DHT22;847;48.058;7.810;2023-11-22T02:34:42;8.70;99.00
1700;DHT22;847;48.058;7.810;2023-11-22T02:37:09;8.60;99.00
1700;DHT22;847;48.058;7.810;2023-11-22T02:39:48;8.60;99.00
1700;DHT22;847;48.058;7.810;2023-11-22T02:42:20;8.40;99.00
1700;DHT22;847;48.058;7.810;2023-11-22T02:44:47;8.20;99.00
1700;DHT22;847;48.058;7.810;2023-11-22T02:47:14;8.20;99.00
1700;DHT22;847;48.058;7.810;2023-11-22T02:49:41;8.10;99.00
1700;DHT22;847;48.058;7.810;2023-11-22T02:52:07;8.00;99.00
1700;DHT22;847;48.058;7.810;2023-11-22T02:54:37;8.00;99.00
1700;DHT22;847;48.058;7.810;2023-11-22T02:57:04;8.00;99.00
1700;DHT22;847;48.058;7.810;2023-11-22T02:59:32;7.90;99.00
1700;DHT22;847;48.058;7.810;2023-11-22T03:01:58;7.90;99.00
1700;DHT22;847;48.058;7.810;2023-11-22T03:04:27;7.80;99.00
1700;DHT22;847;48.058;7.810;2023-11-22T03:06:54;7.80;99.00
1700;DHT22;847;48.058;7.810;2023-11-22T03:09:20;7.80;99.00
1700;DHT22;847;48.058;7.810;2023-11-22T03:11:49;7.70;99.00
1700;DHT22;847;48.058;7.810;2023-11-22T03:14:16;7.60;99.00
1700;DHT22;847;48.058;7.810;2023-11-22T03:16:45;7.50;99.00
1700;DHT22;847;48.058;7.810;2023-11-22T03:19:12;7.40;99.00
1700;DHT22;847;48.058;7.810;2023-11-22T03:21:38;7.40;99.00
1700;DHT22;847;48.058;7.810;2023-11-22T03:24:07;7.40;99.00
1700;DHT22;847;48.058;7.810;2023-11-22T03:26:34;7.30;99.00
1700;DHT22;847;48.058;7.810;2023-11-22T03:29:01;7.10;99.00
1700;DHT22;847;48.058;7.810;2023-11-22T03:31:28;7.10;99.00
1700;DHT22;847;48.058;7.810;2023-11-22T03:33:56;7.20;99.00
1700;DHT22;847;48.058;7.810;2023-11-22T03:36:24;7.00;99.00
1700;DHT22;847;48.058;7.810;2023-11-22T03:38:52;6.90;99.00
1700;DHT22;847;48.058;7.810;2023-11-22T03:41:18;6.90;99.00
1700;DHT22;847;48.058;7.810;2023-11-22T03:43:46;6.90;99.00
1700;DHT22;847;48.058;7.810;2023-11-22T03:46:13;6.90;99.00
1700;DHT22;847;48.058;7.810;2023-11-22T03:48:40;6.80;99.00
1700;DHT22;847;48.058;7.810;2023-11-22T03:51:08;6.80;99.00
1700;DHT22;847;48.058;7.810;2023-11-22T03:53:38;6.60;99.00
1700;DHT22;847;48.058;7.810;2023-11-22T03:56:06;6.50;99.00
1700;DHT22;847;48.058;7.810;2023-11-22T03:58:33;6.50;99.00
1700;DHT22;847;48.058;7.810;2023-11-22T04:01:00;6.40;99.00
1700;DHT22;847;48.058;7.810;2023-11-22T04:03:28;6.30;99.00
1700;DHT22;847;48.058;7.810;2023-11-22T04:05:55;6.40;99.00
1700;DHT22;847;48.058;7.810;2023-11-22T04:08:23;6.40;99.00
1700;DHT22;847;48.058;7.810;2023-11-22T04:10:50;6.30;99.00
1700;DHT22;847;48.058;7.810;2023-11-22T04:13:17;6.20;99.00
1700;DHT22;847;48.058;7.810;2023-11-22T04:15:44;6.10;99.00
1700;DHT22;847;48.058;7.810;2023-11-22T04:18:11;6.20;99.00
1700;DHT22;847;48.058;7.810;2023-11-22T04:20:38;6.20;99.00
1700;DHT22;847;48.058;7.810;2023-11-22T04:23:05;6.00;99.00
1700;DHT22;847;48.058;7.810;2023-11-22T04:25:32;5.90;99.00
1700;DHT22;847;48.058;7.810;2023-11-22T04:28:00;5.90;99.00
1700;DHT22;847;48.058;7.810;2023-11-22T04:30:27;6.00;99.00
1700;DHT22;847;48.058;7.810;2023-11-22T04:32:54;5.90;99.00
1700;DHT22;847;48.058;7.810;2023-11-22T04:35:21;5.90;99.00
1700;DHT22;847;48.058;7.810;2023-11-22T04:37:48;5.80;99.00
1700;DHT22;847;48.058;7.810;2023-11-22T04:40:14;5.80;99.00
1700;DHT22;847;48.058;7.810;2023-11-22T04:42:43;5.80;99.00
1700;DHT22;847;48.058;7.810;2023-11-22T04:45:10;5.90;99.00
1700;DHT22;847;48.058;7.810;2023-11-22T04:47:36;5.90;99.00
1700;DHT22;847;48.058;7.810;2023-11-22T04:50:04;5.90;99.00
1700;DHT22;847;48.058;7.810;2023-11-22T04:52:31;6.00;99.00
1700;DHT22;847;48.058;7.810;2023-11-22T04:54:58;6.00;99.00
1700;DHT22;847;48.058;7.810;2023-11-22T04:57:25;6.00;99.00
1700;DHT22;847;48.058;7.810;2023-11-22T04:59:53;6.00;99.00
1700;DHT22;847;48.058;7.810;2023-11-22T05:02:20;6.00;99.00
1700;DHT22;847;48.058;7.810;2023-11-22T05:04:47;6.00;99.00
1700;DHT22;847;48.058;7.810;2023-11-22T05:07:15;5.90;99.00
1700;DHT22;847;48.058;7.810;2023-11-22T05:09:42;5.90;99.00
1700;DHT22;847;48.058;7.810;2023-11-22T05:12:10;5.90;99.00
1700;DHT22;847;48.058;7.810;2023-11-22T05:14:37;5.90;99.00
1700;DHT22;847;48.058;7.810;2023-11-22T05:17:05;5.90;99.00
1700;DHT22;847;48.058;7.810;2023-11-22T05:19:32;6.00;99.00
1700;DHT22;847;48.058;7.810;2023-11-22T05:21:59;6.00;99.00
1700;DHT22;847;48.058;7.810;2023-11-22T05:24:25;6.00;99.00
1700;DHT22;847;48.058;7.810;2023-11-22T05:26:52;5.80;99.00
1700;DHT22;847;48.058;7.810;2023-11-22T05:29:19;5.90;99.00
1700;DHT22;847;48.058;7.810;2023-11-22T05:31:47;5.90;99.00
1700;DHT22;847;48.058;7.810;2023-11-22T05:34:15;5.90;99.00
1700;DHT22;847;48.058;7.810;2023-11-22T05:36:42;5.90;99.00
1700;DHT22;847;48.058;7.810;2023-11-22T05:39:08;5.80;99.00
1700;DHT22;847;48.058;7.810;2023-11-22T05:41:37;5.90;99.00
1700;DHT22;847;48.058;7.810;2023-11-22T05:44:04;5.90;99.00
1700;DHT22;847;48.058;7.810;2023-11-22T05:46:31;5.80;99.00
1700;DHT22;847;48.058;7.810;2023-11-22T05:48:58;5.80;99.00
1700;DHT22;847;48.058;7.810;2023-11-22T05:51:27;5.70;99.00
1700;DHT22;847;48.058;7.810;2023-11-22T05:53:54;5.60;99.00
1700;DHT22;847;48.058;7.810;2023-11-22T05:56:21;5.60;99.00
1700;DHT22;847;48.058;7.810;2023-11-22T05:58:48;5.60;99.00
1700;DHT22;847;48.058;7.810;2023-11-22T06:01:15;5.60;99.00
1700;DHT22;847;48.058;7.810;2023-11-22T06:03:42;5.50;99.00
1700;DHT22;847;48.058;7.810;2023-11-22T06:06:09;5.50;99.00
1700;DHT22;847;48.058;7.810;2023-11-22T06:08:37;5.50;99.00
1700;DHT22;847;48.058;7.810;2023-11-22T06:11:04;5.50;99.00
1700;DHT22;847;48.058;7.810;2023-11-22T06:13:31;5.50;99.00
1700;DHT22;847;48.058;7.810;2023-11-22T06:16:01;5.50;99.00
1700;DHT22;847;48.058;7.810;2023-11-22T06:18:28;5.50;99.00
1700;DHT22;847;48.058;7.810;2023-11-22T06:21:05;5.50;99.00
1700;DHT22;847;48.058;7.810;2023-11-22T06:23:32;5.40;99.00
1700;DHT22;847;48.058;7.810;2023-11-22T06:26:02;5.50;99.00
1700;DHT22;847;48.058;7.810;2023-11-22T06:28:29;5.50;99.00
1700;DHT22;847;48.058;7.810;2023-11-22T06:30:56;5.50;99.00
1700;DHT22;847;48.058;7.810;2023-11-22T06:33:22;5.50;99.00
1700;DHT22;847;48.058;7.810;2023-11-22T06:35:49;5.40;99.00
1700;DHT22;847;48.058;7.810;2023-11-22T06:38:16;5.30;99.00
1700;DHT22;847;48.058;7.810;2023-11-22T06:40:43;5.20;99.00
1700;DHT22;847;48.058;7.810;2023-11-22T06:43:11;5.20;99.00
1700;DHT22;847;48.058;7.810;2023-11-22T06:45:38;5.20;99.00
1700;DHT22;847;48.058;7.810;2023-11-22T06:48:05;5.20;99.00
1700;DHT22;847;48.058;7.810;2023-11-22T06:50:32;5.20;99.00
1700;DHT22;847;48.058;7.810;2023-11-22T06:52:58;5.20;99.00
1700;DHT22;847;48.058;7.810;2023-11-22T06:55:25;5.30;99.00
1700;DHT22;847;48.058;7.810;2023-11-22T06:57:52;5.20;99.00
1700;DHT22;847;48.058;7.810;2023-11-22T07:00:21;5.30;99.00
1700;DHT22;847;48.058;7.810;2023-11-22T07:02:48;5.20;99.00
1700;DHT22;847;48.058;7.810;2023-11-22T07:05:15;5.20;99.00
1700;DHT22;847;48.058;7.810;2023-11-22T07:07:41;5.20;99.00
1700;DHT22;847;48.058;7.810;2023-11-22T07:10:09;5.20;99.00
1700;DHT22;847;48.058;7.810;2023-11-22T07:12:37;5.20;99.00
1700;DHT22;847;48.058;7.810;2023-11-22T07:15:06;5.10;99.00
1700;DHT22;847;48.058;7.810;2023-11-22T07:17:36;5.00;99.00
1700;DHT22;847;48.058;7.810;2023-11-22T07:20:05;4.90;99.00
1700;DHT22;847;48.058;7.810;2023-11-22T07:22:37;4.80;99.00
1700;DHT22;847;48.058;7.810;2023-11-22T07:25:04;4.70;99.00
1700;DHT22;847;48.058;7.810;2023-11-22T07:27:32;4.60;99.00
1700;DHT22;847;48.058;7.810;2023-11-22T07:29:59;4.70;99.00
1700;DHT22;847;48.058;7.810;2023-11-22T07:32:26;4.70;99.00
1700;DHT22;847;48.058;7.810;2023-11-22T07:34:55;4.50;99.00
1700;DHT22;847;48.058;7.810;2023-11-22T07:37:22;4.50;99.00
1700;DHT22;847;48.058;7.810;2023-11-22T07:39:49;4.50;99.00
1700;DHT22;847;48.058;7.810;2023-11-22T07:42:16;4.40;99.00
1700;DHT22;847;48.058;7.810;2023-11-22T07:44:43;4.40;99.00
1700;DHT22;847;48.058;7.810;2023-11-22T07:47:10;4.40;99.00
1700;DHT22;847;48.058;7.810;2023-11-22T07:49:38;4.50;99.00
1700;DHT22;847;48.058;7.810;2023-11-22T07:52:08;4.40;99.00
1700;DHT22;847;48.058;7.810;2023-11-22T07:54:39;4.30;99.00
1700;DHT22;847;48.058;7.810;2023-11-22T07:57:06;4.30;99.00
1700;DHT22;847;48.058;7.810;2023-11-22T07:59:33;4.40;99.00
1700;DHT22;847;48.058;7.810;2023-11-22T08:02:00;4.40;99.00
1700;DHT22;847;48.058;7.810;2023-11-22T08:04:27;4.40;99.00
1700;DHT22;847;48.058;7.810;2023-11-22T08:06:57;4.30;99.00
1700;DHT22;847;48.058;7.810;2023-11-22T08:09:25;4.40;99.00
1700;DHT22;847;48.058;7.810;2023-11-22T08:11:56;4.40;99.00
1700;DHT22;847;48.058;7.810;2023-11-22T08:14:23;4.40;99.00
1700;DHT22;847;48.058;7.810;2023-11-22T08:16:53;4.30;99.00
1700;DHT22;847;48.058;7.810;2023-11-22T08:19:20;4.30;99.00
1700;DHT22;847;48.058;7.810;2023-11-22T08:21:47;4.40;99.00
1700;DHT22;847;48.058;7.810;2023-11-22T08:24:14;4.30;99.00
1700;DHT22;847;48.058;7.810;2023-11-22T08:26:43;4.30;99.00
1700;DHT22;847;48.058;7.810;2023-11-22T08:29:10;4.30;99.00
1700;DHT22;847;48.058;7.810;2023-11-22T08:31:37;4.30;99.00
1700;DHT22;847;48.058;7.810;2023-11-22T08:34:04;4.30;99.00
1700;DHT22;847;48.058;7.810;2023-11-22T08:36:32;4.30;99.00
1700;DHT22;847;48.058;7.810;2023-11-22T08:39:00;4.30;99.00
1700;DHT22;847;48.058;7.810;2023-11-22T08:41:27;4.40;99.00
1700;DHT22;847;48.058;7.810;2023-11-22T08:43:56;4.50;99.00
1700;DHT22;847;48.058;7.810;2023-11-22T08:46:23;4.40;99.00
1700;DHT22;847;48.058;7.810;2023-11-22T08:48:50;4.40;99.00
1700;DHT22;847;48.058;7.810;2023-11-22T08:51:17;4.40;99.00
1700;DHT22;847;48.058;7.810;2023-11-22T08:53:44;4.60;99.00
1700;DHT22;847;48.058;7.810;2023-11-22T08:56:11;4.50;99.00
1700;DHT22;847;48.058;7.810;2023-11-22T08:58:38;4.50;99.00
1700;DHT22;847;48.058;7.810;2023-11-22T09:01:06;4.50;99.00
1700;DHT22;847;48.058;7.810;2023-11-22T09:03:33;4.70;99.00
1700;DHT22;847;48.058;7.810;2023-11-22T09:06:00;4.70;99.00
1700;DHT22;847;48.058;7.810;2023-11-22T09:08:28;4.70;99.00
1700;DHT22;847;48.058;7.810;2023-11-22T09:10:55;4.70;99.00
1700;DHT22;847;48.058;7.810;2023-11-22T09:13:22;4.70;99.00
1700;DHT22;847;48.058;7.810;2023-11-22T09:15:50;4.80;99.00
1700;DHT22;847;48.058;7.810;2023-11-22T09:18:18;4.80;99.00
1700;DHT22;847;48.058;7.810;2023-11-22T09:20:45;4.70;99.00
1700;DHT22;847;48.058;7.810;2023-11-22T09:23:12;4.80;99.00
1700;DHT22;847;48.058;7.810;2023-11-22T09:25:40;4.80;99.00
1700;DHT22;847;48.058;7.810;2023-11-22T09:28:07;4.80;99.00
1700;DHT22;847;48.058;7.810;2023-11-22T09:30:35;4.80;99.00
1700;DHT22;847;48.058;7.810;2023-11-22T09:33:05;4.80;99.00
1700;DHT22;847;48.058;7.810;2023-11-22T09:35:34;4.80;99.00
1700;DHT22;847;48.058;7.810;2023-11-22T09:38:03;4.80;99.00
1700;DHT22;847;48.058;7.810;2023-11-22T09:40:30;4.70;99.00
1700;DHT22;847;48.058;7.810;2023-11-22T09:42:58;4.70;99.00
1700;DHT22;847;48.058;7.810;2023-11-22T09:45:27;4.80;99.00
1700;DHT22;847;48.058;7.810;2023-11-22T09:47:55;4.70;99.00
1700;DHT22;847;48.058;7.810;2023-11-22T09:50:26;4.80;99.00
1700;DHT22;847;48.058;7.810;2023-11-22T09:52:59;4.80;99.00
1700;DHT22;847;48.058;7.810;2023-11-22T09:55:28;4.80;99.00
1700;DHT22;847;48.058;7.810;2023-11-22T09:57:56;4.70;99.00
1700;DHT22;847;48.058;7.810;2023-11-22T10:01:14;4.70;99.00
1700;DHT22;847;48.058;7.810;2023-11-22T10:03:30;4.70;99.00
1700;DHT22;847;48.058;7.810;2023-11-22T10:05:57;4.80;99.00
1700;DHT22;847;48.058;7.810;2023-11-22T10:08:27;4.90;99.00
1700;DHT22;847;48.058;7.810;2023-11-22T10:10:55;5.00;99.00
1700;DHT22;847;48.058;7.810;2023-11-22T10:13:22;5.00;99.00
1700;DHT22;847;48.058;7.810;2023-11-22T10:15:49;5.00;99.00
1700;DHT22;847;48.058;7.810;2023-11-22T10:18:16;5.10;99.00
1700;DHT22;847;48.058;7.810;2023-11-22T10:20:44;5.10;99.00
1700;DHT22;847;48.058;7.810;2023-11-22T10:23:13;5.10;99.00
1700;DHT22;847;48.058;7.810;2023-11-22T10:25:44;5.00;99.00
1700;DHT22;847;48.058;7.810;2023-11-22T10:28:13;5.10;99.00
1700;DHT22;847;48.058;7.810;2023-11-22T10:30:40;5.00;99.00
1700;DHT22;847;48.058;7.810;2023-11-22T10:33:10;5.10;99.00
1700;DHT22;847;48.058;7.810;2023-11-22T10:35:39;5.20;99.00
1700;DHT22;847;48.058;7.810;2023-11-22T10:38:08;5.10;99.00
1700;DHT22;847;48.058;7.810;2023-11-22T10:40:36;5.00;99.00
1700;DHT22;847;48.058;7.810;2023-11-22T10:43:05;4.90;99.00
1700;DHT22;847;48.058;7.810;2023-11-22T10:45:34;4.90;99.00
1700;DHT22;847;48.058;7.810;2023-11-22T10:48:03;4.80;99.00
1700;DHT22;847;48.058;7.810;2023-11-22T10:50:30;4.80;99.00
1700;DHT22;847;48.058;7.810;2023-11-22T10:52:58;4.80;99.00
1700;DHT22;847;48.058;7.810;2023-11-22T10:55:27;4.70;99.00
1700;DHT22;847;48.058;7.810;2023-11-22T10:58:01;4.70;99.00
1700;DHT22;847;48.058;7.810;2023-11-22T11:00:31;4.60;99.00
1700;DHT22;847;48.058;7.810;2023-11-22T11:03:00;4.60;99.00
1700;DHT22;847;48.058;7.810;2023-11-22T11:05:31;4.70;99.00
1700;DHT22;847;48.058;7.810;2023-11-22T11:08:00;4.60;99.00
1700;DHT22;847;48.058;7.810;2023-11-22T11:10:28;4.60;99.00
1700;DHT22;847;48.058;7.810;2023-11-22T11:12:55;4.60;99.00
1700;DHT22;847;48.058;7.810;2023-11-22T11:15:23;4.70;99.00
1700;DHT22;847;48.058;7.810;2023-11-22T11:17:51;4.70;99.00
1700;DHT22;847;48.058;7.810;2023-11-22T11:20:19;4.60;99.00
1700;DHT22;847;48.058;7.810;2023-11-22T11:22:49;4.70;99.00
1700;DHT22;847;48.058;7.810;2023-11-22T11:25:17;4.60;99.00
1700;DHT22;847;48.058;7.810;2023-11-22T11:27:51;4.60;99.00
1700;DHT22;847;48.058;7.810;2023-11-22T11:30:41;4.40;99.00
1700;DHT22;847;48.058;7.810;2023-11-22T11:33:11;4.50;99.00
1700;DHT22;847;48.058;7.810;2023-11-22T11:35:43;4.50;99.00
1700;DHT22;847;48.058;7.810;2023-11-22T11:38:12;4.50;99.00
1700;DHT22;847;48.058;7.810;2023-11-22T11:40:40;4.60;99.00
1700;DHT22;847;48.058;7.810;2023-11-22T11:43:07;4.50;99.00
1700;DHT22;847;48.058;7.810;2023-11-22T11:45:36;4.40;99.00
1700;DHT22;847;48.058;7.810;2023-11-22T11:48:05;4.40;99.00
1700;DHT22;847;48.058;7.810;2023-11-22T11:50:33;4.40;99.00
1700;DHT22;847;48.058;7.810;2023-11-22T11:53:00;4.40;99.00
1700;DHT22;847;48.058;7.810;2023-11-22T11:55:28;4.40;99.00
1700;DHT22;847;48.058;7.810;2023-11-22T11:57:54;4.50;99.00
1700;DHT22;847;48.058;7.810;2023-11-22T12:00:22;4.40;98.70
1700;DHT22;847;48.058;7.810;2023-11-22T12:02:50;4.40;99.00
1700;DHT22;847;48.058;7.810;2023-11-22T12:05:19;4.30;98.50
1700;DHT22;847;48.058;7.810;2023-11-22T12:07:47;4.30;98.60
1700;DHT22;847;48.058;7.810;2023-11-22T12:10:14;4.40;99.00
1700;DHT22;847;48.058;7.810;2023-11-22T12:12:43;4.40;99.00
1700;DHT22;847;48.058;7.810;2023-11-22T12:15:12;4.40;98.60
1700;DHT22;847;48.058;7.810;2023-11-22T12:17:40;4.30;98.80
1700;DHT22;847;48.058;7.810;2023-11-22T12:20:11;4.40;98.50
1700;DHT22;847;48.058;7.810;2023-11-22T12:22:40;4.40;97.60
1700;DHT22;847;48.058;7.810;2023-11-22T12:25:10;4.30;96.80
1700;DHT22;847;48.058;7.810;2023-11-22T12:27:41;4.30;97.20
1700;DHT22;847;48.058;7.810;2023-11-22T12:30:09;4.30;98.10
1700;DHT22;847;48.058;7.810;2023-11-22T12:32:39;4.30;98.00
1700;DHT22;847;48.058;7.810;2023-11-22T12:35:08;4.30;97.40
1700;DHT22;847;48.058;7.810;2023-11-22T12:37:37;4.20;96.60
1700;DHT22;847;48.058;7.810;2023-11-22T12:40:11;4.20;96.30
1700;DHT22;847;48.058;7.810;2023-11-22T12:42:49;4.20;96.50
1700;DHT22;847;48.058;7.810;2023-11-22T12:45:20;4.20;96.20
1700;DHT22;847;48.058;7.810;2023-11-22T12:47:49;4.20;96.50
1700;DHT22;847;48.058;7.810;2023-11-22T12:50:36;4.20;97.00
1700;DHT22;847;48.058;7.810;2023-11-22T12:53:14;4.30;97.00
1700;DHT22;847;48.058;7.810;2023-11-22T12:55:46;4.20;96.50
1700;DHT22;847;48.058;7.810;2023-11-22T12:58:14;4.20;97.60
1700;DHT22;847;48.058;7.810;2023-11-22T13:00:42;4.30;98.40
1700;DHT22;847;48.058;7.810;2023-11-22T13:03:09;4.30;97.60
1700;DHT22;847;48.058;7.810;2023-11-22T13:05:36;4.30;97.10
1700;DHT22;847;48.058;7.810;2023-11-22T13:08:03;4.30;96.90
1700;DHT22;847;48.058;7.810;2023-11-22T13:10:30;4.30;96.70
1700;DHT22;847;48.058;7.810;2023-11-22T13:12:58;4.30;96.80
1700;DHT22;847;48.058;7.810;2023-11-22T13:15:26;4.30;97.00
1700;DHT22;847;48.058;7.810;2023-11-22T13:17:53;4.30;97.00
1700;DHT22;847;48.058;7.810;2023-11-22T13:20:22;4.30;97.00
1700;DHT22;847;48.058;7.810;2023-11-22T13:22:49;4.30;97.10
1700;DHT22;847;48.058;7.810;2023-11-22T13:25:16;4.30;97.10
1700;DHT22;847;48.058;7.810;2023-11-22T13:27:44;4.40;97.70
1700;DHT22;847;48.058;7.810;2023-11-22T13:30:14;4.40;97.00
1700;DHT22;847;48.058;7.810;2023-11-22T13:32:41;4.40;96.00
1700;DHT22;847;48.058;7.810;2023-11-22T13:35:09;4.40;96.40
1700;DHT22;847;48.058;7.810;2023-11-22T13:37:41;4.30;96.40
1700;DHT22;847;48.058;7.810;2023-11-22T13:40:10;4.30;95.90
1700;DHT22;847;48.058;7.810;2023-11-22T13:42:41;4.40;96.80
1700;DHT22;847;48.058;7.810;2023-11-22T13:45:09;4.40;95.80
1700;DHT22;847;48.058;7.810;2023-11-22T13:47:37;4.30;96.00
1700;DHT22;847;48.058;7.810;2023-11-22T13:50:05;4.40;96.60
1700;DHT22;847;48.058;7.810;2023-11-22T13:52:32;4.30;96.20
1700;DHT22;847;48.058;7.810;2023-11-22T13:54:59;4.30;96.10
1700;DHT22;847;48.058;7.810;2023-11-22T13:57:27;4.30;96.40
1700;DHT22;847;48.058;7.810;2023-11-22T13:59:54;4.30;96.60
1700;DHT22;847;48.058;7.810;2023-11-22T14:02:20;4.30;95.80
1700;DHT22;847;48.058;7.810;2023-11-22T14:04:49;4.30;96.00
1700;DHT22;847;48.058;7.810;2023-11-22T14:07:16;4.30;96.40
1700;DHT22;847;48.058;7.810;2023-11-22T14:09:43;4.30;96.00
1700;DHT22;847;48.058;7.810;2023-11-22T14:12:12;4.40;96.10
1700;DHT22;847;48.058;7.810;2023-11-22T14:14:39;4.40;95.80
1700;DHT22;847;48.058;7.810;2023-11-22T14:17:05;4.40;96.60
1700;DHT22;847;48.058;7.810;2023-11-22T14:19:32;4.40;96.10
1700;DHT22;847;48.058;7.810;2023-11-22T14:22:00;4.40;96.00
1700;DHT22;847;48.058;7.810;2023-11-22T14:24:27;4.40;96.20
1700;DHT22;847;48.058;7.810;2023-11-22T14:26:55;4.40;95.70
1700;DHT22;847;48.058;7.810;2023-11-22T14:29:25;4.50;96.60
1700;DHT22;847;48.058;7.810;2023-11-22T14:31:52;4.50;96.20
1700;DHT22;847;48.058;7.810;2023-11-22T14:34:19;4.50;95.90
1700;DHT22;847;48.058;7.810;2023-11-22T14:36:46;4.50;96.00
1700;DHT22;847;48.058;7.810;2023-11-22T14:39:14;4.50;96.20
1700;DHT22;847;48.058;7.810;2023-11-22T14:41:41;4.50;97.10
1700;DHT22;847;48.058;7.810;2023-11-22T14:44:10;4.60;96.80
1700;DHT22;847;48.058;7.810;2023-11-22T14:46:36;4.60;96.10
1700;DHT22;847;48.058;7.810;2023-11-22T14:49:03;4.50;95.70
1700;DHT22;847;48.058;7.810;2023-11-22T14:51:31;4.50;96.20
1700;DHT22;847;48.058;7.810;2023-11-22T14:53:59;4.50;95.80
1700;DHT22;847;48.058;7.810;2023-11-22T14:56:27;4.50;95.60
1700;DHT22;847;48.058;7.810;2023-11-22T14:58:54;4.40;95.40
1700;DHT22;847;48.058;7.810;2023-11-22T15:01:22;4.40;95.80
1700;DHT22;847;48.058;7.810;2023-11-22T15:03:50;4.30;95.90
1700;DHT22;847;48.058;7.810;2023-11-22T15:06:20;4.40;96.00
1700;DHT22;847;48.058;7.810;2023-11-22T15:08:47;4.40;96.10
1700;DHT22;847;48.058;7.810;2023-11-22T15:11:13;4.40;96.30
1700;DHT22;847;48.058;7.810;2023-11-22T15:13:42;4.40;96.10
1700;DHT22;847;48.058;7.810;2023-11-22T15:16:09;4.40;96.80
1700;DHT22;847;48.058;7.810;2023-11-22T15:18:38;4.40;96.40
1700;DHT22;847;48.058;7.810;2023-11-22T15:21:05;4.50;96.20
1700;DHT22;847;48.058;7.810;2023-11-22T15:23:32;4.50;96.10
1700;DHT22;847;48.058;7.810;2023-11-22T15:25:59;4.50;96.40
1700;DHT22;847;48.058;7.810;2023-11-22T15:28:26;4.50;96.40
1700;DHT22;847;48.058;7.810;2023-11-22T15:30:54;4.50;96.70
1700;DHT22;847;48.058;7.810;2023-11-22T15:33:24;4.40;96.70
1700;DHT22;847;48.058;7.810;2023-11-22T15:35:51;4.40;96.60
1700;DHT22;847;48.058;7.810;2023-11-22T15:38:19;4.40;96.60
1700;DHT22;847;48.058;7.810;2023-11-22T15:40:47;4.40;96.90
1700;DHT22;847;48.058;7.810;2023-11-22T15:43:14;4.40;96.80
1700;DHT22;847;48.058;7.810;2023-11-22T15:45:41;4.40;97.00
1700;DHT22;847;48.058;7.810;2023-11-22T15:48:09;4.40;97.20
1700;DHT22;847;48.058;7.810;2023-11-22T15:50:38;4.40;97.10
1700;DHT22;847;48.058;7.810;2023-11-22T15:53:05;4.40;96.90
1700;DHT22;847;48.058;7.810;2023-11-22T15:55:38;4.40;96.90
1700;DHT22;847;48.058;7.810;2023-11-22T15:58:08;4.40;97.30
1700;DHT22;847;48.058;7.810;2023-11-22T16:00:35;4.40;97.50
1700;DHT22;847;48.058;7.810;2023-11-22T16:03:02;4.40;97.80
1700;DHT22;847;48.058;7.810;2023-11-22T16:05:33;4.50;97.80
1700;DHT22;847;48.058;7.810;2023-11-22T16:08:00;4.60;97.60
1700;DHT22;847;48.058;7.810;2023-11-22T16:10:26;4.60;97.40
1700;DHT22;847;48.058;7.810;2023-11-22T16:12:53;4.60;97.40
1700;DHT22;847;48.058;7.810;2023-11-22T16:15:20;4.60;97.40
1700;DHT22;847;48.058;7.810;2023-11-22T16:17:47;4.50;97.70
1700;DHT22;847;48.058;7.810;2023-11-22T16:20:14;4.50;97.90
1700;DHT22;847;48.058;7.810;2023-11-22T16:22:42;4.50;97.80
1700;DHT22;847;48.058;7.810;2023-11-22T16:25:11;4.40;98.00
1700;DHT22;847;48.058;7.810;2023-11-22T16:27:38;4.50;98.40
1700;DHT22;847;48.058;7.810;2023-11-22T16:30:05;4.50;98.40
1700;DHT22;847;48.058;7.810;2023-11-22T16:32:34;4.60;99.00
1700;DHT22;847;48.058;7.810;2023-11-22T16:35:02;4.80;99.00
1700;DHT22;847;48.058;7.810;2023-11-22T16:37:29;4.60;98.50
1700;DHT22;847;48.058;7.810;2023-11-22T16:39:57;4.50;97.80